Denver, Colorado
Traffic Map
Current Weather Conditions
Denver, Colorado
Scattered Clouds
Scattered Clouds
13°
Feels Like: 13°
Wind Chill: 13° Ceiling: Unl
Heat Index: 13° Visibility: 10mi
Dew Point: -1° Wind: 9mph
Humidity: 38% Direction: 10° (N)
Pressure: 30.17in Gusts: 0mph
Raw Report DataKBKF 311958Z 01008KT 10SM FEW110 SCT220 13/M01 A3017 RMK AO2A SLP192 T01341007
Traffic Incident Summary
Active as of:
Severity:
Category:
InformationThere was an issue retrieving the traffic information for this location. Please try a different location or try again shortly.
Advertisements
Track Severe Weather on mobile